Time;durP1;ratioP1;P1;durP2;ratioP2;P2;SDS_P1;SDS_P2;PMS_P1;PMS_P2;Temp;Humidity;BMP_temperature;BMP_pressure;BME280_temperature;BME280_humidity;BME280_pressure;Samples;Min_cycle;Max_cycle;Signal;HPM_P1;HPM_P2
2023/03/12 07:01:13;;;;;;;9.50;6.90;;;;;;;-145.79;84.68;78250.66;5327286;27;20346;-76
2023/03/12 07:03:45;;;;;;;7.90;7.10;;;;;;;-145.79;85.56;78246.41;5309194;28;20089;-75
2023/03/12 07:06:20;;;;;;;8.70;6.70;;;;;;;-145.79;86.19;78254.91;5314818;28;20031;-75
2023/03/12 07:08:51;;;;;;;8.37;6.50;;;;;;;-145.79;86.54;78246.41;5325556;28;20102;-75
2023/03/12 07:11:23;;;;;;;8.65;6.70;;;;;;;-145.79;86.42;78244.28;5320254;28;20110;-76
2023/03/12 07:13:54;;;;;;;9.57;6.45;;;;;;;-145.79;87.14;78237.94;5318507;28;20039;-76
2023/03/12 07:16:26;;;;;;;7.75;6.40;;;;;;;-145.79;87.17;78244.28;5322976;28;20027;-76
2023/03/12 07:18:57;;;;;;;9.68;6.60;;;;;;;-145.79;86.96;78242.19;5320868;27;20028;-76
2023/03/12 07:21:30;;;;;;;11.55;6.55;;;;;;;-145.79;87.32;78242.19;5319075;28;20062;-76
2023/03/12 07:24:05;;;;;;;11.95;6.80;;;;;;;-145.79;87.45;78237.94;5314281;28;20034;-76
2023/03/12 07:26:36;;;;;;;11.55;7.40;;;;;;;-145.79;87.83;78231.56;5316781;28;20027;-76
2023/03/12 07:29:08;;;;;;;10.93;7.35;;;;;;;-145.79;87.87;78229.47;5318645;28;20073;-76
2023/03/12 07:31:39;;;;;;;10.50;6.85;;;;;;;-145.79;88.00;78227.34;5319793;28;20022;-76
2023/03/12 07:34:11;;;;;;;18.58;7.70;;;;;;;-145.79;87.81;78237.94;5318403;28;20031;-76
2023/03/12 07:36:42;;;;;;;9.40;6.80;;;;;;;-145.79;88.26;78225.22;5319682;28;20023;-75
2023/03/12 07:39:13;;;;;;;8.23;7.30;;;;;;;-145.79;88.66;78225.22;5320572;28;20031;-76
2023/03/12 07:41:45;;;;;;;8.75;6.88;;;;;;;-145.79;88.44;78229.47;5320064;28;20519;-76
2023/03/12 07:44:16;;;;;;;8.07;7.28;;;;;;;-145.79;88.65;78214.63;5318443;28;20494;-75
2023/03/12 07:46:47;;;;;;;10.20;8.10;;;;;;;-145.79;89.26;78237.94;5320183;28;20047;-76
2023/03/12 07:49:19;;;;;;;8.10;7.30;;;;;;;-145.79;89.87;78231.56;5319822;28;20062;-76
2023/03/12 07:51:50;;;;;;;7.43;6.68;;;;;;;-145.79;89.94;78233.69;5315669;28;20024;-75
2023/03/12 07:54:24;;;;;;;10.82;7.90;;;;;;;-145.79;90.11;78212.50;5320364;28;20020;-76
2023/03/12 07:56:56;;;;;;;9.48;8.18;;;;;;;-145.79;90.37;78225.22;5314261;28;20475;-76
2023/03/12 07:59:27;;;;;;;11.38;9.02;;;;;;;-145.79;90.43;78220.97;5319847;28;20112;-76
2023/03/12 08:01:59;;;;;;;9.75;8.75;;;;;;;-145.79;91.00;78208.25;5318947;28;20054;-75
2023/03/12 08:04:30;;;;;;;10.35;8.38;;;;;;;-145.79;91.28;78204.00;5317478;28;20012;-75
2023/03/12 08:07:01;;;;;;;8.38;7.57;;;;;;;-145.79;91.12;78201.91;5318120;28;20054;-75
2023/03/12 08:09:33;;;;;;;9.40;7.72;;;;;;;-145.79;91.79;78191.28;5317472;28;20093;-75
2023/03/12 08:12:06;;;;;;;9.35;8.20;;;;;;;-145.79;91.87;78189.19;5306084;28;20020;-76
2023/03/12 08:14:37;;;;;;;9.85;7.95;;;;;;;-145.79;92.11;78178.56;5305772;28;20020;-76
2023/03/12 08:17:08;;;;;;;10.73;9.60;;;;;;;-145.79;91.95;78178.56;5303734;28;20387;-75
2023/03/12 08:19:42;;;;;;;10.43;7.63;;;;;;;-145.79;92.32;78170.09;5302726;28;20027;-75
2023/03/12 08:22:14;;;;;;;9.07;8.00;;;;;;;-145.79;92.74;78172.22;5303642;28;20539;-76
2023/03/12 08:24:46;;;;;;;8.95;8.15;;;;;;;-145.79;93.21;78174.34;5307640;28;20031;-76
2023/03/12 08:27:17;;;;;;;8.60;7.80;;;;;;;-145.79;93.84;78174.34;5306988;28;20024;-75
2023/03/12 08:29:48;;;;;;;7.93;7.13;;;;;;;-145.79;94.67;78174.34;5303570;28;20487;-76
2023/03/12 08:32:23;;;;;;;9.25;7.95;;;;;;;-145.79;95.69;78170.09;5306949;28;20023;-76
2023/03/12 08:34:54;;;;;;;9.23;7.65;;;;;;;-145.79;96.21;78167.97;5303162;28;20475;-76
2023/03/12 08:37:25;;;;;;;9.07;8.23;;;;;;;-145.79;96.43;78172.22;5298772;28;20053;-75
2023/03/12 08:39:57;;;;;;;9.13;8.23;;;;;;;-145.79;96.95;78165.84;5304728;28;20103;-75
2023/03/12 08:42:29;;;;;;;9.85;8.13;;;;;;;-145.79;97.63;78167.97;5302999;28;20043;-76
2023/03/12 08:45:00;;;;;;;8.68;7.88;;;;;;;-145.79;98.16;78159.50;5299129;27;20024;-74
2023/03/12 08:47:31;;;;;;;10.18;9.15;;;;;;;-145.79;98.48;78157.38;5300875;28;20028;-76
2023/03/12 08:50:03;;;;;;;9.65;8.65;;;;;;;-145.79;98.91;78151.00;5304920;28;20026;-76
2023/03/12 08:52:34;;;;;;;10.05;9.05;;;;;;;-145.79;98.77;78148.91;5304306;28;20448;-75
2023/03/12 08:55:06;;;;;;;10.95;9.85;;;;;;;-145.79;99.16;78140.41;5302150;28;20024;-74
2023/03/12 08:57:37;;;;;;;12.25;11.00;;;;;;;-145.79;99.57;78129.81;5304426;28;20024;-74
2023/03/12 09:00:13;;;;;;;15.10;13.23;;;;;;;-145.79;100.00;78127.69;5302867;28;20044;-75
2023/03/12 09:02:45;;;;;;;13.30;11.90;;;;;;;-145.79;100.00;78127.69;5301219;28;20365;-75
2023/03/12 09:05:17;;;;;;;15.77;13.30;;;;;;;-145.79;100.00;78110.72;5303548;28;20023;-75
2023/03/12 09:07:48;;;;;;;18.45;14.13;;;;;;;-145.79;100.00;78095.91;5300787;28;20062;-74
2023/03/12 09:10:20;;;;;;;18.85;14.05;;;;;;;-145.79;100.00;78098.00;5302088;28;20034;-74
2023/03/12 09:12:51;;;;;;;17.30;14.43;;;;;;;-145.79;100.00;78093.78;5304417;28;20069;-74
2023/03/12 09:15:22;;;;;;;18.55;14.65;;;;;;;-145.79;100.00;78085.28;5305205;28;20100;-75
2023/03/12 09:17:54;;;;;;;19.40;14.55;;;;;;;-145.79;100.00;78078.94;5308778;28;20020;-74
2023/03/12 09:20:26;;;;;;;18.98;14.63;;;;;;;-145.79;100.00;78059.84;5305935;28;20081;-74
2023/03/12 09:22:57;;;;;;;15.95;14.35;;;;;;;-145.79;100.00;78055.63;5302938;28;20042;-74
2023/03/12 09:25:28;;;;;;;16.98;14.50;;;;;;;-145.79;100.00;78042.91;5304409;28;20020;-74
2023/03/12 09:28:01;;;;;;;18.77;16.02;;;;;;;-145.79;100.00;78036.53;5300952;28;20050;-76
2023/03/12 09:30:32;;;;;;;22.30;16.58;;;;;;;-145.79;100.00;78030.19;5302113;28;20046;-75
2023/03/12 09:33:04;;;;;;;21.08;18.13;;;;;;;-145.79;100.00;78023.81;5303519;28;20024;-75
2023/03/12 09:35:36;;;;;;;18.42;16.08;;;;;;;-145.79;100.00;78015.34;5301017;28;20028;-75
2023/03/12 09:38:11;;;;;;;19.08;17.08;;;;;;;-145.79;100.00;78004.72;5301105;28;20020;-75
2023/03/12 09:40:46;;;;;;;21.30;17.58;;;;;;;-145.79;100.00;77989.91;5301445;28;20078;-75
2023/03/12 09:43:39;;;;;;;21.73;18.27;;;;;;;-145.79;100.00;77977.19;5301109;28;20017;-78
2023/03/12 09:46:21;;;;;;;21.35;17.48;;;;;;;-145.79;100.00;77968.69;5298425;28;20036;-77
2023/03/12 09:48:57;;;;;;;20.13;17.83;;;;;;;-145.79;100.00;77960.22;5301577;28;20043;-77
2023/03/12 09:51:39;;;;;;;20.33;18.17;;;;;;;-145.79;100.00;77962.34;5299545;28;20027;-77
2023/03/12 09:54:25;;;;;;;20.42;18.27;;;;;;;-145.79;100.00;77970.81;5303424;28;20375;-77
2023/03/12 09:57:02;;;;;;;20.05;18.00;;;;;;;-145.79;100.00;77962.34;5296052;28;20016;-77
2023/03/12 09:59:35;;;;;;;21.63;19.27;;;;;;;-145.79;100.00;77958.09;5301556;28;20135;-77
2023/03/12 10:02:45;;;;;;;21.00;18.85;;;;;;;-145.79;100.00;77947.50;5291180;28;20035;-77
2023/03/12 10:05:36;;;;;;;22.17;19.70;;;;;;;-145.79;100.00;77943.25;5297544;28;20372;-77
2023/03/12 10:08:47;;;;;;;25.70;21.73;;;;;;;-145.79;100.00;77936.91;5283479;28;20524;-77
2023/03/12 10:11:48;;;;;;;26.27;20.00;;;;;;;-145.79;100.00;77930.53;5283164;28;20031;-77
2023/03/12 10:14:42;;;;;;;24.20;19.98;;;;;;;-145.79;100.00;77915.69;5289202;28;20394;-77
2023/03/12 10:17:39;;;;;;;23.20;19.98;;;;;;;-145.79;100.00;77907.22;5301393;28;20476;-76
2023/03/12 10:20:29;;;;;;;23.55;20.17;;;;;;;-145.79;100.00;77907.22;5283613;28;20048;-76
2023/03/12 10:23:33;;;;;;;26.77;21.95;;;;;;;-145.79;100.00;77892.38;5283010;28;20041;-77
2023/03/12 10:26:21;;;;;;;25.92;20.80;;;;;;;-145.79;100.00;77890.25;5300440;28;20111;-77
2023/03/12 10:29:20;;;;;;;27.85;21.90;;;;;;;-145.79;100.00;77881.78;5304142;28;20031;-77
2023/03/12 10:32:11;;;;;;;31.10;22.88;;;;;;;-145.79;100.00;77881.78;5302255;28;20028;-77
2023/03/12 10:34:50;;;;;;;29.42;22.52;;;;;;;-145.79;100.00;77877.53;5297812;28;20025;-75
2023/03/12 10:38:00;;;;;;;29.20;23.35;;;;;;;-145.79;100.00;77875.41;5294486;28;20031;-76
2023/03/12 10:40:37;;;;;;;36.28;23.50;;;;;;;-145.79;100.00;77869.06;5304188;28;20128;-78
2023/03/12 10:43:09;;;;;;;37.15;23.80;;;;;;;-145.79;100.00;77856.34;5302479;28;20050;-76
2023/03/12 10:45:52;;;;;;;36.10;24.20;;;;;;;-145.79;100.00;77841.50;5302941;28;20028;-77
2023/03/12 10:48:24;;;;;;;36.33;24.40;;;;;;;-145.79;100.00;77830.91;5289882;28;20028;-77
2023/03/12 10:51:03;;;;;;;39.03;22.10;;;;;;;-145.79;100.00;77818.19;5294955;28;20043;-77
2023/03/12 10:53:34;;;;;;;33.75;21.45;;;;;;;-145.79;100.00;77811.81;5300676;28;20017;-77
2023/03/12 10:56:09;;;;;;;36.17;21.88;;;;;;;-145.79;100.00;77801.22;5296940;28;20388;-78
2023/03/12 10:58:42;;;;;;;37.35;22.40;;;;;;;-145.79;100.00;77796.97;5282298;28;20029;-76
2023/03/12 11:01:14;;;;;;;34.22;22.15;;;;;;;-145.79;100.00;77780.03;5281736;28;20036;-78
2023/03/12 11:03:45;;;;;;;33.72;22.17;;;;;;;-145.79;100.00;77771.53;5299280;28;20405;-77
2023/03/12 11:06:23;;;;;;;34.72;19.75;;;;;;;-145.79;100.00;77763.06;5302719;28;20024;-77
2023/03/12 11:09:16;;;;;;;33.50;20.85;;;;;;;-145.79;100.00;77752.47;5291649;28;20024;-76
2023/03/12 11:11:49;;;;;;;37.85;20.38;;;;;;;-145.79;100.00;77763.06;5302331;28;20036;-76
2023/03/12 11:14:23;;;;;;;28.65;18.83;;;;;;;-145.79;100.00;77746.09;5302231;28;20417;-77
2023/03/12 11:16:55;;;;;;;31.55;17.75;;;;;;;-145.79;100.00;77746.09;5300681;28;20068;-77
2023/03/12 11:19:32;;;;;;;31.25;19.88;;;;;;;-145.79;100.00;77748.22;5282458;28;20056;-77
2023/03/12 11:22:07;;;;;;;33.35;18.75;;;;;;;-145.79;100.00;77741.88;5302811;28;20027;-76
2023/03/12 11:24:55;;;;;;;31.55;15.32;;;;;;;-145.79;100.00;77741.88;5303608;28;20024;-77
2023/03/12 11:27:29;;;;;;;35.03;19.60;;;;;;;-145.79;100.00;77737.63;5286032;28;20024;-77
2023/03/12 11:30:03;;;;;;;28.60;18.65;;;;;;;-145.79;100.00;77731.28;5282085;28;20020;-78
2023/03/12 11:32:42;;;;;;;33.83;18.15;;;;;;;-145.79;100.00;77724.91;5282621;28;20081;-77
2023/03/12 11:35:19;;;;;;;29.80;16.13;;;;;;;-145.79;100.00;77724.91;5297601;28;20384;-77
2023/03/12 11:38:14;;;;;;;29.42;16.05;;;;;;;-145.79;100.00;77724.91;5293994;28;20091;-77
2023/03/12 11:41:13;;;;;;;34.70;17.90;;;;;;;-145.79;100.00;77724.91;5282470;28;20024;-77
2023/03/12 11:43:53;;;;;;;36.88;17.60;;;;;;;-145.79;100.00;77720.66;5285014;28;20051;-77
2023/03/12 11:46:48;;;;;;;35.83;17.90;;;;;;;-145.79;100.00;77722.78;5296386;28;20024;-76
2023/03/12 11:49:57;;;;;;;34.70;17.67;;;;;;;-145.79;100.00;77718.56;5301462;28;20479;-77
2023/03/12 11:53:06;;;;;;;32.75;17.10;;;;;;;-145.79;100.00;77714.31;5303779;28;20066;-78
2023/03/12 11:55:59;;;;;;;35.78;18.30;;;;;;;-145.79;100.00;77703.72;5302515;28;20070;-77
2023/03/12 11:59:00;;;;;;;35.65;15.98;;;;;;;-145.79;100.00;77686.75;5303973;28;20032;-78
2023/03/12 12:02:01;;;;;;;34.10;16.85;;;;;;;-145.79;100.00;77680.38;5304582;28;20040;-77
2023/03/12 12:04:45;;;;;;;36.70;17.00;;;;;;;-145.79;100.00;77652.84;5303481;28;20028;-78
2023/03/12 12:07:41;;;;;;;32.47;14.88;;;;;;;-145.79;100.00;77627.41;5306154;28;20032;-78
2023/03/12 12:10:31;;;;;;;27.87;15.17;;;;;;;-145.79;98.64;77606.19;5303133;28;20032;-78
2023/03/12 12:13:07;;;;;;;35.63;16.63;;;;;;;-145.79;97.02;77591.38;5296279;28;20111;-77
2023/03/12 12:16:03;;;;;;;26.67;13.98;;;;;;;-145.79;95.60;77578.66;5306373;28;20043;-77
2023/03/12 12:18:49;;;;;;;27.00;12.50;;;;;;;-145.79;95.14;77555.31;5284433;28;20384;-77
2023/03/12 12:21:34;;;;;;;28.92;12.82;;;;;;;-145.79;94.29;77559.56;5305042;28;20066;-77
2023/03/12 12:24:11;;;;;;;26.43;11.53;;;;;;;-145.79;92.76;77546.84;5305211;28;20065;-77
2023/03/12 12:26:54;;;;;;;24.05;10.43;;;;;;;-145.79;89.94;77534.13;5296703;28;20121;-77
2023/03/12 12:29:39;;;;;;;23.30;11.10;;;;;;;-145.79;90.45;77529.88;5304095;28;20028;-77
2023/03/12 12:32:19;;;;;;;20.67;12.70;;;;;;;-145.79;91.19;77517.16;5304578;28;20036;-77
2023/03/12 12:35:24;;;;;;;29.88;13.20;;;;;;;-145.79;89.98;77504.47;5296287;28;20085;-77
2023/03/12 12:37:58;;;;;;;25.33;11.00;;;;;;;-145.79;89.05;77498.09;5296588;28;20344;-77
2023/03/12 12:40:42;;;;;;;24.40;11.90;;;;;;;-145.79;88.59;77491.75;5305943;28;20510;-76
2023/03/12 12:43:41;;;;;;;35.13;12.77;;;;;;;-145.79;88.34;77487.50;5306476;28;20523;-77
2023/03/12 12:46:27;;;;;;;30.30;16.92;;;;;;;-145.79;86.92;77479.03;5304287;28;20032;-77
2023/03/12 12:49:13;;;;;;;36.53;15.30;;;;;;;-145.79;85.39;77470.53;5294666;28;20112;-77
2023/03/12 12:51:49;;;;;;;25.85;13.45;;;;;;;-145.79;85.27;77472.66;5296553;28;20024;-77
2023/03/12 12:54:43;;;;;;;29.55;14.40;;;;;;;-145.79;83.26;77457.81;5306080;28;20050;-77
2023/03/12 12:57:28;;;;;;;30.02;13.15;;;;;;;-145.79;83.20;77459.94;5303152;28;20032;-77
2023/03/12 13:00:20;;;;;;;28.88;12.20;;;;;;;-145.79;81.05;77453.59;5305527;28;20635;-77
2023/03/12 13:02:53;;;;;;;27.08;13.10;;;;;;;-145.79;80.73;77447.22;5293561;28;20021;-78
2023/03/12 13:05:28;;;;;;;28.50;12.93;;;;;;;-145.79;80.47;77440.88;5298567;28;20020;-77
2023/03/12 13:07:59;;;;;;;25.50;15.20;;;;;;;-145.79;80.27;77440.88;5297625;28;20024;-77
2023/03/12 13:10:33;;;;;;;25.90;12.63;;;;;;;-145.79;79.54;77440.88;5305242;28;20024;-77
2023/03/12 13:13:18;;;;;;;25.55;13.18;;;;;;;-145.79;78.75;77449.34;5304668;28;20379;-77
2023/03/12 13:15:52;;;;;;;30.90;11.93;;;;;;;-145.79;78.90;77442.97;5305562;28;20399;-77
2023/03/12 13:18:26;;;;;;;27.80;13.63;;;;;;;-145.79;78.76;77440.88;5305551;28;20019;-77
2023/03/12 13:21:10;;;;;;;26.65;11.43;;;;;;;-145.79;76.73;77428.16;5298174;28;20027;-76
2023/03/12 13:23:57;;;;;;;48.10;28.55;;;;;;;-145.79;77.42;77434.50;5305529;28;20107;-77
2023/03/12 13:26:37;;;;;;;30.15;19.15;;;;;;;-145.79;77.07;77438.75;5304562;28;20036;-78
2023/03/12 13:29:28;;;;;;;23.95;10.18;;;;;;;-145.79;75.49;77436.63;5304647;28;20020;-77
2023/03/12 13:31:59;;;;;;;21.98;11.60;;;;;;;-145.79;74.82;77432.38;5305420;28;20391;-77
2023/03/12 13:34:46;;;;;;;31.95;11.55;;;;;;;-145.79;74.58;77430.25;5300407;28;20024;-78
2023/03/12 13:37:29;;;;;;;27.80;10.30;;;;;;;-145.79;75.06;77432.38;5294901;28;20016;-78
2023/03/12 13:40:04;;;;;;;31.38;10.25;;;;;;;-145.79;75.22;77419.66;5304470;28;20039;-78
2023/03/12 13:42:39;;;;;;;25.77;10.23;;;;;;;-145.79;75.05;77413.31;5283763;28;20111;-78
2023/03/12 13:45:25;;;;;;;29.87;10.47;;;;;;;-145.79;75.18;77404.84;5283579;28;20059;-78
2023/03/12 13:48:00;;;;;;;26.70;12.65;;;;;;;-145.79;75.08;77398.47;5287357;28;20032;-80
2023/03/12 13:50:32;;;;;;;26.47;13.53;;;;;;;-145.79;75.52;77398.47;5300816;28;20024;-78
2023/03/12 13:53:07;;;;;;;26.35;9.95;;;;;;;-145.79;75.84;77413.31;5305033;28;20396;-78
2023/03/12 13:55:45;;;;;;;21.58;10.40;;;;;;;-145.79;75.11;77428.16;5282394;28;20029;-78
2023/03/12 13:58:22;;;;;;;34.75;15.63;;;;;;;-145.79;74.26;77419.66;5295525;28;20457;-76
2023/03/12 14:01:17;;;;;;;24.50;11.63;;;;;;;-145.79;75.15;77419.66;5282578;28;20047;-77
2023/03/12 14:03:54;;;;;;;26.27;11.33;;;;;;;-145.79;75.58;77423.91;5301977;28;20379;-77
2023/03/12 14:06:29;;;;;;;24.45;10.27;;;;;;;-145.79;75.30;77430.25;5304303;28;20439;-78
2023/03/12 14:09:24;;;;;;;21.10;10.18;;;;;;;-145.79;74.79;77428.16;5298516;28;20032;-75
2023/03/12 14:12:34;;;;;;;24.45;10.02;;;;;;;-145.79;75.06;77432.38;5300078;28;20134;-79
2023/03/12 14:15:20;;;;;;;23.63;9.43;;;;;;;-145.79;75.01;77436.63;5291727;28;20036;-79
2023/03/12 14:17:58;;;;;;;28.90;8.68;;;;;;;-145.79;74.72;77436.63;5294705;28;20039;-78
2023/03/12 14:20:29;;;;;;;29.40;9.50;;;;;;;-145.79;75.16;77438.75;5300449;28;20020;-78
2023/03/12 14:23:06;;;;;;;21.63;9.10;;;;;;;-145.79;74.87;77436.63;5299784;28;20379;-77
2023/03/12 14:25:42;;;;;;;22.60;9.85;;;;;;;-145.79;75.01;77445.09;5300978;28;20027;-77
2023/03/12 14:28:19;;;;;;;24.15;8.45;;;;;;;-145.79;75.19;77449.34;5302972;28;20486;-77
2023/03/12 14:30:54;;;;;;;26.50;9.77;;;;;;;-145.79;75.06;77445.09;5301648;28;20027;-77
2023/03/12 14:33:31;;;;;;;24.83;8.25;;;;;;;-145.79;75.11;77449.34;5296520;28;20361;-77
2023/03/12 14:36:11;;;;;;;18.90;8.27;;;;;;;-145.79;74.99;77453.59;5291970;28;20055;-77
2023/03/12 14:38:45;;;;;;;18.02;8.70;;;;;;;-145.79;75.49;77447.22;5283461;28;20025;-77
2023/03/12 14:41:24;;;;;;;24.25;7.55;;;;;;;-145.79;74.76;77457.81;5301955;28;20020;-77
2023/03/12 14:44:18;;;;;;;19.55;7.18;;;;;;;-145.79;75.17;77453.59;5303101;28;20100;-76
2023/03/12 14:47:06;;;;;;;21.70;7.45;;;;;;;-145.79;75.39;77453.59;5302217;28;20039;-78
2023/03/12 14:49:40;;;;;;;29.55;8.38;;;;;;;-145.79;75.49;77455.69;5295584;28;20349;-78
2023/03/12 14:52:13;;;;;;;30.00;8.00;;;;;;;-145.79;75.53;77459.94;5289399;28;20027;-78
2023/03/12 14:55:12;;;;;;;24.67;7.72;;;;;;;-145.79;75.41;77457.81;5300305;28;20029;-78
2023/03/12 14:57:44;;;;;;;29.52;10.93;;;;;;;-145.79;75.58;77468.41;5300230;28;20523;-77
2023/03/12 15:00:27;;;;;;;26.25;7.78;;;;;;;-145.79;75.60;77457.81;5299247;28;20044;-78
2023/03/12 15:03:04;;;;;;;18.23;6.30;;;;;;;-145.79;75.99;77462.06;5301758;28;20031;-76
2023/03/12 15:05:35;;;;;;;18.35;8.35;;;;;;;-145.79;75.68;77457.81;5302784;28;20055;-77
2023/03/12 15:08:07;;;;;;;23.08;8.27;;;;;;;-145.79;75.58;77455.69;5284946;28;20116;-78
2023/03/12 15:10:46;;;;;;;26.90;7.75;;;;;;;-145.79;75.54;77453.59;5283498;28;20107;-79
2023/03/12 15:13:20;;;;;;;26.55;8.48;;;;;;;-145.79;75.61;77453.59;5282488;28;20053;-79
2023/03/12 15:15:54;;;;;;;26.42;7.32;;;;;;;-145.79;75.30;77453.59;5282979;28;20024;-77
2023/03/12 15:18:28;;;;;;;25.15;8.63;;;;;;;-145.79;75.03;77445.09;5283120;28;20090;-77
2023/03/12 15:21:01;;;;;;;29.00;8.80;;;;;;;-145.79;75.64;77447.22;5284778;28;20475;-77
2023/03/12 15:23:34;;;;;;;25.25;8.85;;;;;;;-145.79;75.57;77445.09;5307711;28;20103;-77
2023/03/12 15:26:15;;;;;;;28.35;9.45;;;;;;;-145.79;75.36;77449.34;5308275;28;20031;-78
2023/03/12 15:29:02;;;;;;;26.98;8.85;;;;;;;-145.79;75.47;77440.88;5307794;28;20154;-77
2023/03/12 15:31:41;;;;;;;29.75;13.02;;;;;;;-145.79;75.27;77440.88;5307912;28;20020;-76
2023/03/12 15:34:26;;;;;;;23.83;10.80;;;;;;;-145.79;74.93;77434.50;5307551;28;20468;-77
2023/03/12 15:37:03;;;;;;;29.92;11.60;;;;;;;-145.79;74.90;77436.63;5307961;28;20062;-76
2023/03/12 15:39:36;;;;;;;27.27;10.75;;;;;;;-145.79;74.86;77432.38;5308261;28;20048;-77
2023/03/12 15:42:14;;;;;;;23.50;8.60;;;;;;;-145.79;75.03;77436.63;5306149;28;20073;-78
2023/03/12 15:44:50;;;;;;;19.15;7.82;;;;;;;-145.79;74.58;77434.50;5307754;28;20466;-77
2023/03/12 15:47:25;;;;;;;23.00;8.55;;;;;;;-145.79;73.26;77434.50;5307221;27;20058;-77
2023/03/12 15:50:01;;;;;;;23.35;9.63;;;;;;;-145.79;72.16;77423.91;5307659;28;20074;-77
2023/03/12 15:52:34;;;;;;;33.00;17.27;;;;;;;-145.79;70.71;77411.19;5307271;28;20111;-77
2023/03/12 15:55:22;;;;;;;22.13;6.93;;;;;;;-145.79;70.44;77413.31;5306815;28;20019;-77
2023/03/12 15:57:55;;;;;;;23.00;7.10;;;;;;;-145.79;69.75;77411.19;5302164;28;20020;-77
2023/03/12 16:00:30;;;;;;;18.67;6.70;;;;;;;-145.79;68.96;77409.06;5285879;28;20053;-77
2023/03/12 16:03:06;;;;;;;16.80;6.25;;;;;;;-145.79;69.17;77411.19;5297587;28;20032;-77
2023/03/12 16:05:38;;;;;;;24.15;6.78;;;;;;;-145.79;68.44;77404.84;5289419;28;20467;-78
2023/03/12 16:08:20;;;;;;;19.08;8.02;;;;;;;-145.79;68.50;77385.75;5286385;28;20032;-77
2023/03/12 16:10:52;;;;;;;20.13;7.50;;;;;;;-145.79;68.58;77396.34;5285730;28;20025;-77
2023/03/12 16:13:29;;;;;;;21.02;7.95;;;;;;;-145.79;68.55;77390.00;5286559;28;20036;-77
2023/03/12 16:16:01;;;;;;;27.63;10.35;;;;;;;-145.79;69.04;77398.47;5302749;28;20024;-77
2023/03/12 16:18:35;;;;;;;17.52;6.57;;;;;;;-145.79;69.33;77396.34;5309393;28;20030;-77
2023/03/12 16:21:07;;;;;;;24.27;6.95;;;;;;;-145.79;68.79;77400.59;5307118;28;20032;-77
2023/03/12 16:23:41;;;;;;;22.38;8.80;;;;;;;-145.79;68.77;77400.59;5306748;28;20081;-76
2023/03/12 16:26:14;;;;;;;25.00;7.13;;;;;;;-145.79;67.98;77394.22;5307279;28;20050;-75
2023/03/12 16:28:45;;;;;;;29.35;9.05;;;;;;;-145.79;67.76;77394.22;5307100;28;20020;-77
2023/03/12 16:31:23;;;;;;;24.00;6.38;;;;;;;-145.79;67.73;77398.47;5303836;28;20502;-77
